Harding, Kansas
Current Conditions -  °F | °C
As of 12:15 AM on Saturday 29 Nov 2014 (Local Time) from KPTS Reporting Station
Clear Clear  
Wind Chill: 56°   Ceiling: Unl
Heat Index: 56°   Visibility: 10mi
Dew Point: 48°   Wind: 10mph
Humidity: 75%   Direction: 220°SW
Pressure: 29.81"   Gusts: NA
Location:  38.0179°N, 94.8751°W
Report Text: KPTS 290615Z AUTO 22009KT 10SM CLR 13/09 A2981 RMK AO2 T01330089
Loading
Personal Weather Stations






























Interactive Weather Map New forecast layout! Learn more

10-Day Weather Forecast

Advertisements
Track Severe Weather on mobile